createdAt,value
2018-02-25T00:00:25.370Z,36.40
2018-02-25T00:02:54.629Z,36.35
2018-02-25T00:05:23.870Z,35.47
2018-02-25T00:07:52.999Z,37.38
2018-02-25T00:10:23.054Z,38.45
2018-02-25T00:12:52.182Z,38.42
2018-02-25T00:15:21.583Z,36.92
2018-02-25T00:17:50.846Z,40.17
2018-02-25T00:20:20.353Z,39.10
2018-02-25T00:22:49.635Z,37.90
2018-02-25T00:25:18.842Z,40.12
2018-02-25T00:27:48.080Z,39.22
2018-02-25T00:30:17.492Z,39.47
2018-02-25T00:32:46.424Z,40.63
2018-02-25T00:35:15.776Z,41.22
2018-02-25T00:37:45.016Z,38.97
2018-02-25T00:40:14.214Z,40.05
2018-02-25T00:42:44.455Z,43.00
2018-02-25T00:45:13.575Z,38.38
2018-02-25T00:47:42.892Z,41.00
2018-02-25T00:50:12.397Z,41.33
2018-02-25T00:52:41.533Z,40.47
2018-02-25T00:55:11.203Z,40.17
2018-02-25T00:57:40.664Z,41.85
2018-02-25T01:00:10.114Z,41.65
2018-02-25T01:02:39.134Z,42.40
2018-02-25T01:05:08.610Z,36.15
2018-02-25T01:07:37.914Z,38.03
2018-02-25T01:10:07.419Z,36.45
2018-02-25T01:12:36.718Z,39.60
2018-02-25T01:15:06.324Z,43.20
2018-02-25T01:17:35.385Z,41.40
2018-02-25T01:20:04.594Z,39.75
2018-02-25T01:22:33.761Z,43.05
2018-02-25T01:25:02.880Z,39.00
2018-02-25T01:27:32.000Z,39.55
2018-02-25T01:30:01.316Z,42.20
2018-02-25T01:32:30.538Z,36.03
2018-02-25T01:34:59.995Z,39.33
2018-02-25T01:37:29.582Z,38.65
2018-02-25T01:39:58.962Z,41.47
2018-02-25T01:42:28.149Z,38.88
2018-02-25T01:44:57.174Z,44.38
2018-02-25T01:47:26.305Z,40.92
2018-02-25T01:49:55.737Z,40.95
2018-02-25T01:52:25.010Z,44.10
2018-02-25T01:54:54.215Z,43.28
2018-02-25T01:57:23.297Z,42.70
2018-02-25T01:59:52.516Z,38.72
2018-02-25T02:02:21.670Z,41.88
2018-02-25T02:04:50.888Z,38.33
2018-02-25T02:07:20.229Z,38.78
2018-02-25T02:09:49.462Z,40.30
2018-02-25T02:12:18.910Z,37.75
2018-02-25T02:14:48.107Z,38.83
2018-02-25T02:17:17.119Z,42.10
2018-02-25T02:19:46.421Z,40.47
2018-02-25T02:22:15.585Z,40.47
2018-02-25T02:24:44.517Z,39.20
2018-02-25T02:27:13.867Z,38.15
2018-02-25T02:29:43.192Z,35.08
2018-02-25T02:32:12.592Z,38.70
2018-02-25T02:34:41.752Z,38.70
2018-02-25T02:37:11.404Z,41.92
2018-02-25T02:39:40.777Z,39.08
2018-02-25T02:42:10.590Z,39.60
2018-02-25T02:44:39.916Z,37.20
2018-02-25T02:47:09.419Z,37.92
2018-02-25T02:49:38.638Z,37.83
2018-02-25T02:52:08.044Z,37.50
2018-02-25T02:54:37.466Z,39.05
2018-02-25T02:57:06.677Z,35.25
2018-02-25T02:59:35.849Z,36.70
2018-02-25T03:02:05.417Z,34.25
2018-02-25T03:04:34.627Z,36.05
2018-02-25T03:07:04.124Z,36.35
2018-02-25T03:09:33.276Z,36.03
2018-02-25T03:12:02.828Z,34.42
2018-02-25T03:14:32.262Z,35.63
2018-02-25T03:17:01.426Z,32.78
2018-02-25T03:19:30.610Z,31.55
2018-02-25T03:22:00.024Z,32.30
2018-02-25T03:24:29.166Z,33.15
2018-02-25T03:26:58.654Z,34.58
2018-02-25T03:29:27.670Z,36.00
2018-02-25T03:31:57.434Z,33.20
2018-02-25T03:34:26.708Z,36.08
2018-02-25T03:36:55.917Z,33.75
2018-02-25T03:39:25.331Z,31.10
2018-02-25T03:41:54.848Z,35.58
2018-02-25T03:44:24.440Z,35.22
2018-02-25T03:46:53.810Z,31.00
2018-02-25T03:49:23.218Z,33.30
2018-02-25T03:51:52.541Z,33.70
2018-02-25T03:54:21.785Z,36.08
2018-02-25T03:56:51.081Z,31.05
2018-02-25T03:59:20.423Z,36.60
2018-02-25T04:01:49.810Z,38.25
2018-02-25T04:04:18.937Z,32.45
2018-02-25T04:06:48.083Z,31.75
2018-02-25T04:09:17.304Z,31.12
2018-02-25T04:11:46.254Z,34.08
2018-02-25T04:14:15.675Z,35.20
2018-02-25T04:16:45.131Z,34.47
2018-02-25T04:19:14.885Z,34.45
2018-02-25T04:21:43.947Z,33.92
2018-02-25T04:24:13.260Z,32.72
2018-02-25T04:26:42.655Z,33.17
2018-02-25T04:29:11.716Z,34.50
2018-02-25T04:31:40.908Z,32.63
2018-02-25T04:34:10.455Z,33.80
2018-02-25T04:36:39.374Z,35.38
2018-02-25T04:39:08.766Z,40.78
2018-02-25T04:41:37.928Z,36.13
2018-02-25T04:44:07.240Z,31.48
2018-02-25T04:46:36.462Z,34.35
2018-02-25T04:49:05.736Z,34.97
2018-02-25T04:51:35.272Z,34.92
2018-02-25T04:54:04.776Z,35.17
2018-02-25T04:56:34.122Z,36.10
2018-02-25T04:59:03.468Z,33.33
2018-02-25T05:01:32.881Z,37.13
2018-02-25T05:04:02.064Z,39.28
2018-02-25T05:06:31.317Z,35.28
2018-02-25T05:09:00.766Z,33.25
2018-02-25T05:11:29.754Z,36.63
2018-02-25T05:13:58.799Z,33.15
2018-02-25T05:16:28.384Z,34.70
2018-02-25T05:18:57.334Z,35.05
2018-02-25T05:21:26.626Z,32.58
2018-02-25T05:23:55.794Z,34.88
2018-02-25T05:26:24.838Z,35.47
2018-02-25T05:28:54.337Z,37.90
2018-02-25T05:31:23.638Z,37.67
2018-02-25T05:33:52.845Z,35.30
2018-02-25T05:36:22.130Z,32.45
2018-02-25T05:38:51.590Z,36.40
2018-02-25T05:41:20.946Z,32.65
2018-02-25T05:43:50.116Z,33.05
2018-02-25T05:46:19.527Z,34.50
2018-02-25T05:48:48.726Z,33.50
2018-02-25T05:51:18.040Z,34.55
2018-02-25T05:53:47.000Z,35.00
2018-02-25T05:56:16.864Z,33.22
2018-02-25T05:58:45.946Z,35.67
2018-02-25T06:01:14.973Z,31.75
2018-02-25T06:03:44.134Z,35.33
2018-02-25T06:06:13.507Z,34.53
2018-02-25T06:08:43.246Z,34.65
2018-02-25T06:11:13.060Z,34.55
2018-02-25T06:13:42.296Z,31.80
2018-02-25T06:16:11.562Z,33.72
2018-02-25T06:18:40.716Z,33.92
2018-02-25T06:21:10.127Z,34.65
2018-02-25T06:23:39.181Z,37.05
2018-02-25T06:26:08.818Z,37.22
2018-02-25T06:28:38.168Z,36.85
2018-02-25T06:31:07.486Z,34.22
2018-02-25T06:33:36.589Z,35.88
2018-02-25T06:36:05.989Z,35.58
2018-02-25T06:38:35.140Z,31.08
2018-02-25T06:41:05.125Z,32.80
2018-02-25T06:43:34.571Z,36.50
2018-02-25T06:46:03.680Z,32.30
2018-02-25T06:48:32.957Z,35.55
2018-02-25T06:51:02.355Z,29.87
2018-02-25T06:53:31.904Z,32.95
2018-02-25T06:56:00.910Z,32.80
2018-02-25T06:58:29.921Z,32.72
2018-02-25T07:00:58.960Z,39.10
2018-02-25T07:03:28.099Z,35.30
2018-02-25T07:05:57.332Z,36.33
2018-02-25T07:08:26.442Z,39.70
2018-02-25T07:10:55.893Z,31.00
2018-02-25T07:13:25.458Z,38.05
2018-02-25T07:15:55.500Z,35.20
2018-02-25T07:18:24.879Z,34.30
2018-02-25T07:20:54.053Z,34.63
2018-02-25T07:23:23.034Z,29.73
2018-02-25T07:25:52.384Z,34.38
2018-02-25T07:28:21.403Z,34.38
2018-02-25T07:30:50.766Z,36.85
2018-02-25T07:33:19.964Z,33.35
2018-02-25T07:35:49.156Z,32.17
2018-02-25T07:38:18.794Z,32.22
2018-02-25T07:40:47.997Z,28.77
2018-02-25T07:43:17.778Z,33.60
2018-02-25T07:45:46.967Z,37.75
2018-02-25T07:48:16.205Z,31.95
2018-02-25T07:50:45.586Z,34.58
2018-02-25T07:53:14.770Z,34.15
2018-02-25T07:55:44.193Z,31.05
2018-02-25T07:58:13.780Z,34.50
2018-02-25T08:00:43.087Z,33.08
2018-02-25T08:03:12.755Z,33.33
2018-02-25T08:05:42.140Z,32.58
2018-02-25T08:08:11.408Z,33.28
2018-02-25T08:10:40.572Z,29.33
2018-02-25T08:13:09.695Z,29.83
2018-02-25T08:15:38.835Z,35.13
2018-02-25T08:18:07.802Z,30.37
2018-02-25T08:20:37.284Z,28.70
2018-02-25T08:23:06.429Z,34.17
2018-02-25T08:25:35.560Z,33.88
2018-02-25T08:28:04.738Z,34.65
2018-02-25T08:30:34.312Z,31.25
2018-02-25T08:33:03.685Z,33.67
2018-02-25T08:35:33.018Z,28.98
2018-02-25T08:38:02.082Z,31.62
2018-02-25T08:40:31.222Z,34.13
2018-02-25T08:43:00.677Z,32.55
2018-02-25T08:45:29.595Z,34.88
2018-02-25T08:47:58.976Z,37.10
2018-02-25T08:50:28.251Z,34.58
2018-02-25T08:52:57.951Z,30.75
2018-02-25T08:55:27.146Z,31.67
2018-02-25T08:57:56.382Z,29.02
2018-02-25T09:00:25.602Z,32.20
2018-02-25T09:02:54.581Z,32.50
2018-02-25T09:05:23.926Z,32.45
2018-02-25T09:07:52.829Z,30.08
2018-02-25T09:10:22.367Z,34.80
2018-02-25T09:12:51.433Z,31.17
2018-02-25T09:15:20.870Z,32.20
2018-02-25T09:17:49.955Z,30.08
2018-02-25T09:20:19.162Z,27.95
2018-02-25T09:22:47.993Z,32.55
2018-02-25T09:25:17.207Z,31.25
2018-02-25T09:27:46.681Z,32.22
2018-02-25T09:30:15.949Z,32.97
2018-02-25T09:32:45.033Z,32.22
2018-02-25T09:35:14.277Z,28.83
2018-02-25T09:37:43.749Z,32.80
2018-02-25T09:40:12.946Z,33.85
2018-02-25T09:42:42.247Z,33.17
2018-02-25T09:45:11.237Z,30.30
2018-02-25T09:47:40.552Z,34.17
2018-02-25T09:50:09.827Z,34.85
2018-02-25T09:52:39.408Z,33.17
2018-02-25T09:55:08.758Z,42.17
2018-02-25T09:57:38.066Z,33.88
2018-02-25T10:00:07.254Z,37.60
2018-02-25T10:02:36.400Z,31.55
2018-02-25T10:05:05.635Z,33.05
2018-02-25T10:07:34.834Z,31.45
2018-02-25T10:10:04.006Z,35.85
2018-02-25T10:12:33.296Z,37.20
2018-02-25T10:15:02.676Z,30.95
2018-02-25T10:17:32.059Z,34.08
2018-02-25T10:20:01.114Z,30.67
2018-02-25T10:22:30.241Z,31.10
2018-02-25T10:24:59.458Z,36.83
2018-02-25T10:27:28.869Z,35.05
2018-02-25T10:29:58.034Z,31.40
2018-02-25T10:32:26.934Z,38.15
2018-02-25T10:34:56.273Z,33.30
2018-02-25T10:37:25.141Z,39.42
2018-02-25T10:39:54.449Z,33.28
2018-02-25T10:42:24.226Z,32.22
2018-02-25T10:44:53.519Z,33.85
2018-02-25T10:47:22.661Z,31.42
2018-02-25T10:49:51.741Z,32.13
2018-02-25T10:52:21.124Z,35.72
2018-02-25T10:54:50.125Z,35.45
2018-02-25T10:57:19.114Z,33.28
2018-02-25T10:59:48.306Z,31.52
2018-02-25T11:02:17.816Z,32.53
2018-02-25T11:04:47.081Z,34.80
2018-02-25T11:07:16.306Z,33.50
2018-02-25T11:09:45.334Z,32.35
2018-02-25T11:12:14.397Z,30.42
2018-02-25T11:14:43.553Z,30.88
2018-02-25T11:17:12.620Z,32.45
2018-02-25T11:19:41.757Z,31.37
2018-02-25T11:22:11.269Z,35.67
2018-02-25T11:24:40.491Z,36.08
2018-02-25T11:27:09.754Z,38.40
2018-02-25T11:29:39.100Z,34.05
2018-02-25T11:32:08.601Z,32.47
2018-02-25T11:34:37.995Z,34.17
2018-02-25T11:37:07.148Z,34.28
2018-02-25T11:39:36.146Z,34.53
2018-02-25T11:42:05.205Z,36.00
2018-02-25T11:44:34.338Z,34.60
2018-02-25T11:47:03.562Z,37.33
2018-02-25T11:49:32.642Z,34.88
2018-02-25T11:52:02.069Z,36.50
2018-02-25T11:54:31.182Z,30.67
2018-02-25T11:57:00.387Z,33.15
2018-02-25T11:59:29.881Z,34.80
2018-02-25T12:01:59.283Z,32.63
2018-02-25T12:04:28.564Z,34.03
2018-02-25T12:06:57.789Z,34.38
2018-02-25T12:09:27.087Z,38.30
2018-02-25T12:11:56.223Z,38.92
2018-02-25T12:14:25.406Z,39.80
2018-02-25T12:16:54.310Z,36.05
2018-02-25T12:19:23.551Z,35.83
2018-02-25T12:21:52.575Z,42.00
2018-02-25T12:24:21.812Z,34.80
2018-02-25T12:26:51.100Z,36.28
2018-02-25T12:29:20.115Z,39.15
2018-02-25T12:31:49.855Z,35.22
2018-02-25T12:34:19.195Z,34.83
2018-02-25T12:36:48.456Z,36.53
2018-02-25T12:39:17.528Z,37.50
2018-02-25T12:41:46.389Z,36.85
2018-02-25T12:44:15.452Z,39.33
2018-02-25T12:46:44.430Z,39.03
2018-02-25T12:49:13.421Z,39.53
2018-02-25T12:51:42.491Z,40.17
2018-02-25T12:54:12.053Z,41.33
2018-02-25T12:56:41.136Z,42.47
2018-02-25T12:59:10.423Z,39.72
2018-02-25T13:01:39.551Z,44.17
2018-02-25T13:04:08.701Z,38.88
2018-02-25T13:06:38.319Z,42.50
2018-02-25T13:09:07.592Z,50.97
2018-02-25T13:11:37.430Z,42.00
2018-02-25T13:14:06.810Z,42.28
2018-02-25T13:16:35.932Z,42.80
2018-02-25T13:19:05.373Z,45.70
2018-02-25T13:21:34.678Z,43.85
2018-02-25T13:24:03.805Z,53.20
2018-02-25T13:26:33.101Z,50.45
2018-02-25T13:29:02.282Z,47.28
2018-02-25T13:31:31.634Z,53.50
2018-02-25T13:34:01.138Z,49.47
2018-02-25T13:36:30.628Z,48.28
2018-02-25T13:39:00.011Z,44.40
2018-02-25T13:41:30.358Z,49.35
2018-02-25T13:43:59.708Z,51.22
2018-02-25T13:46:29.376Z,51.78
2018-02-25T13:48:58.776Z,48.03
2018-02-25T13:51:28.166Z,54.88
2018-02-25T13:54:02.388Z,49.28
2018-02-25T13:56:32.206Z,49.28
2018-02-25T13:59:01.642Z,50.30
2018-02-25T14:01:30.927Z,48.58
2018-02-25T14:04:00.442Z,44.55
2018-02-25T14:06:29.749Z,49.22
2018-02-25T14:08:58.879Z,56.17
2018-02-25T14:11:28.623Z,52.55
2018-02-25T14:13:58.248Z,52.78
2018-02-25T14:16:27.536Z,52.42
2018-02-25T14:18:57.377Z,49.90
2018-02-25T14:21:26.826Z,48.33
2018-02-25T14:23:56.264Z,46.65
2018-02-25T14:26:25.602Z,44.97
2018-02-25T14:28:54.885Z,40.78
2018-02-25T14:31:24.397Z,45.33
2018-02-25T14:33:53.825Z,52.62
2018-02-25T14:36:23.290Z,46.63
2018-02-25T14:38:52.837Z,46.20
2018-02-25T14:41:22.188Z,51.13
2018-02-25T14:43:51.630Z,52.10
2018-02-25T14:46:21.122Z,51.70
2018-02-25T14:48:50.790Z,46.53
2018-02-25T14:51:20.494Z,45.80
2018-02-25T14:53:49.890Z,44.10
2018-02-25T14:56:19.317Z,53.35
2018-02-25T14:58:48.578Z,46.00
2018-02-25T15:01:18.007Z,42.55
2018-02-25T15:03:47.282Z,49.97
2018-02-25T15:06:16.517Z,58.22
2018-02-25T15:08:45.498Z,54.72
2018-02-25T15:11:14.638Z,55.30
2018-02-25T15:13:43.861Z,52.20
2018-02-25T15:16:13.118Z,56.05
2018-02-25T15:18:42.365Z,49.10
2018-02-25T15:21:11.591Z,56.60
2018-02-25T15:23:41.105Z,62.70
2018-02-25T15:26:10.529Z,57.62
2018-02-25T15:28:40.007Z,57.62
2018-02-25T15:31:09.975Z,63.80
2018-02-25T15:33:39.459Z,64.37
2018-02-25T15:36:08.542Z,62.78
2018-02-25T15:38:37.745Z,59.03
2018-02-25T15:41:07.286Z,64.87
2018-02-25T15:43:36.872Z,58.08
2018-02-25T15:46:06.193Z,56.53
2018-02-25T15:48:35.730Z,62.78
2018-02-25T15:51:05.305Z,64.80
2018-02-25T15:53:34.947Z,60.72
2018-02-25T15:56:04.647Z,63.47
2018-02-25T15:58:34.199Z,67.53
2018-02-25T16:01:03.665Z,59.22
2018-02-25T16:03:33.835Z,65.80
2018-02-25T16:06:03.512Z,60.03
2018-02-25T16:08:32.892Z,64.05
2018-02-25T16:11:02.462Z,61.03
2018-02-25T16:13:32.236Z,58.55
2018-02-25T16:16:01.595Z,59.70
2018-02-25T16:18:30.961Z,54.92
2018-02-25T16:21:00.066Z,54.17
2018-02-25T16:23:29.447Z,54.75
2018-02-25T16:25:58.801Z,57.25
2018-02-25T16:28:28.330Z,51.55
2018-02-25T16:30:57.565Z,56.08
2018-02-25T16:33:26.778Z,57.22
2018-02-25T16:35:56.851Z,56.83
2018-02-25T16:38:26.725Z,58.13
2018-02-25T16:40:56.261Z,52.90
2018-02-25T16:43:25.765Z,59.30
2018-02-25T16:45:54.889Z,59.40
2018-02-25T16:48:24.026Z,51.30
2018-02-25T16:50:54.396Z,54.72
2018-02-25T16:53:23.725Z,52.85
2018-02-25T16:55:52.686Z,50.78
2018-02-25T16:58:21.642Z,55.08
2018-02-25T17:00:50.927Z,51.20
2018-02-25T17:03:19.971Z,48.17
2018-02-25T17:05:49.377Z,50.17
2018-02-25T17:08:18.900Z,48.40
2018-02-25T17:10:48.229Z,55.53
2018-02-25T17:13:17.325Z,50.22
2018-02-25T17:15:46.560Z,47.42
2018-02-25T17:18:15.985Z,49.92
2018-02-25T17:20:45.135Z,56.30
2018-02-25T17:23:21.032Z,49.30
2018-02-25T17:36:12.857Z,49.10
2018-02-25T17:38:42.218Z,48.05
2018-02-25T17:41:11.807Z,61.05
2018-02-25T17:43:41.240Z,48.72
2018-02-25T17:46:10.848Z,47.67
2018-02-25T17:48:40.723Z,50.25
2018-02-25T17:51:10.199Z,52.17
2018-02-25T17:53:39.462Z,51.50
2018-02-25T17:56:08.741Z,48.08
2018-02-25T17:58:38.249Z,48.58
2018-02-25T18:01:07.659Z,46.13
2018-02-25T18:03:36.933Z,42.72
2018-02-25T18:06:06.422Z,50.83
2018-02-25T18:08:35.768Z,41.20
2018-02-25T18:11:04.939Z,42.55
2018-02-25T18:13:34.374Z,43.13
2018-02-25T18:16:04.072Z,47.88
2018-02-25T18:18:33.166Z,41.97
2018-02-25T18:21:02.510Z,44.92
2018-02-25T18:23:32.591Z,46.40
2018-02-25T18:26:02.107Z,45.05
2018-02-25T18:28:31.520Z,51.17
2018-02-25T18:31:00.874Z,43.20
2018-02-25T18:33:30.308Z,47.80
2018-02-25T18:35:59.646Z,47.42
2018-02-25T18:38:28.905Z,50.53
2018-02-25T18:40:58.186Z,45.75
2018-02-25T18:43:27.412Z,46.60
2018-02-25T18:45:56.762Z,44.72
2018-02-25T18:48:25.935Z,41.60
2018-02-25T18:50:55.299Z,43.60
2018-02-25T18:53:25.186Z,50.72
2018-02-25T18:55:54.322Z,68.85
2018-02-25T18:58:23.390Z,46.70
2018-02-25T19:00:52.703Z,47.13
2018-02-25T19:03:22.024Z,43.47
2018-02-25T19:05:51.205Z,46.28
2018-02-25T19:08:20.666Z,41.85
2018-02-25T19:10:50.210Z,42.55
2018-02-25T19:13:19.633Z,41.03
2018-02-25T19:15:49.126Z,39.10
2018-02-25T19:18:18.631Z,43.65
2018-02-25T19:20:47.944Z,42.38
2018-02-25T19:23:17.014Z,50.20
2018-02-25T19:25:46.231Z,41.13
2018-02-25T19:28:15.235Z,44.17
2018-02-25T19:30:44.570Z,43.03
2018-02-25T19:33:13.720Z,43.10
2018-02-25T19:35:48.957Z,40.63
2018-02-25T19:38:23.870Z,40.17
2018-02-25T19:40:59.024Z,42.85
2018-02-25T19:43:28.436Z,41.97
2018-02-25T19:45:57.840Z,37.55
2018-02-25T19:48:27.123Z,38.53
2018-02-25T19:50:56.372Z,39.15
2018-02-25T19:53:25.539Z,33.08
2018-02-25T19:55:54.877Z,35.28
2018-02-25T19:58:24.228Z,37.53
2018-02-25T20:00:53.576Z,33.05
2018-02-25T20:03:23.133Z,37.58
2018-02-25T20:05:52.538Z,34.20
2018-02-25T20:08:21.751Z,42.03
2018-02-25T20:10:50.965Z,35.00
2018-02-25T20:13:20.339Z,31.40
2018-02-25T20:15:49.542Z,30.02
2018-02-25T20:18:18.822Z,34.13
2018-02-25T20:20:47.996Z,35.83
2018-02-25T20:23:17.061Z,32.38
2018-02-25T20:25:46.425Z,32.75
2018-02-25T20:28:15.844Z,35.85
2018-02-25T20:30:44.918Z,29.23
2018-02-25T20:33:14.439Z,28.00
2018-02-25T20:35:43.497Z,29.45
2018-02-25T20:38:12.824Z,23.00
2018-02-25T20:40:42.094Z,30.10
2018-02-25T20:43:11.236Z,25.92
2018-02-25T20:45:40.483Z,25.00
2018-02-25T20:48:10.036Z,23.95
2018-02-25T20:50:39.061Z,28.23
2018-02-25T20:53:08.148Z,23.85
2018-02-25T20:55:37.282Z,27.87
2018-02-25T20:58:06.893Z,24.87
2018-02-25T21:00:36.940Z,22.08
2018-02-25T21:03:06.352Z,23.95
2018-02-25T21:05:35.668Z,25.83
2018-02-25T21:08:04.899Z,24.12
2018-02-25T21:10:34.277Z,27.75
2018-02-25T21:13:03.239Z,26.60
2018-02-25T21:15:32.167Z,23.50
2018-02-25T21:18:01.254Z,26.70
2018-02-25T21:20:30.494Z,25.30
2018-02-25T21:22:59.924Z,30.00
2018-02-25T21:25:29.226Z,27.35
2018-02-25T21:27:58.424Z,23.12
2018-02-25T21:30:27.556Z,24.35
2018-02-25T21:32:57.088Z,21.42
2018-02-25T21:35:26.401Z,24.27
2018-02-25T21:37:56.028Z,20.20
2018-02-25T21:40:25.611Z,24.60
2018-02-25T21:42:54.739Z,22.62
2018-02-25T21:45:23.900Z,24.63
2018-02-25T21:47:52.885Z,20.83
2018-02-25T21:50:22.070Z,15.10
2018-02-25T21:52:51.155Z,23.12
2018-02-25T21:55:20.075Z,20.50
2018-02-25T21:57:54.758Z,23.73
2018-02-25T22:00:29.452Z,22.50
2018-02-25T22:03:04.071Z,19.35
2018-02-25T22:05:33.377Z,20.70
2018-02-25T22:08:02.478Z,15.65
2018-02-25T22:10:31.542Z,18.55
2018-02-25T22:13:00.809Z,18.73
2018-02-25T22:15:30.116Z,16.15
2018-02-25T22:17:59.150Z,19.80
2018-02-25T22:20:28.407Z,17.95
2018-02-25T22:22:57.404Z,17.87
2018-02-25T22:25:26.426Z,19.15
2018-02-25T22:27:55.474Z,14.55
2018-02-25T22:30:24.584Z,16.27
2018-02-25T22:32:53.667Z,19.02
2018-02-25T22:35:23.254Z,17.65
2018-02-25T22:37:52.494Z,18.45
2018-02-25T22:40:22.269Z,17.37
2018-02-25T22:42:51.572Z,16.00
2018-02-25T22:45:21.168Z,15.55
2018-02-25T22:47:50.182Z,16.27
2018-02-25T22:50:19.676Z,17.77
2018-02-25T22:52:49.273Z,13.45
2018-02-25T22:55:18.444Z,13.23
2018-02-25T22:57:47.873Z,18.17
2018-02-25T23:00:23.172Z,15.00
2018-02-25T23:02:52.540Z,12.27
2018-02-25T23:05:21.710Z,15.68
2018-02-25T23:07:51.114Z,12.98
2018-02-25T23:10:20.071Z,15.35
2018-02-25T23:12:49.643Z,9.32
2018-02-25T23:15:19.086Z,15.43
2018-02-25T23:17:48.528Z,13.57
2018-02-25T23:20:17.897Z,13.30
2018-02-25T23:22:47.320Z,15.27
2018-02-25T23:25:16.844Z,13.48
2018-02-25T23:27:46.462Z,13.52
2018-02-25T23:30:15.842Z,13.13
2018-02-25T23:32:45.009Z,16.90
2018-02-25T23:35:14.851Z,16.10
2018-02-25T23:37:43.802Z,12.25
2018-02-25T23:40:13.091Z,15.93
2018-02-25T23:42:42.166Z,13.25
2018-02-25T23:45:11.394Z,15.65
2018-02-25T23:47:40.769Z,12.20
2018-02-25T23:50:09.969Z,11.93
2018-02-25T23:52:39.571Z,15.40
2018-02-25T23:55:08.623Z,13.40
2018-02-25T23:57:37.793Z,12.85
